Cardinal — V7IB3 — position and weather

sailwx.info

Track history (hours):
 
Tides and Currents Weather Stations Pressure Air Temp Water Temp Dewpoint Dewpoint Depression Visibility Wind Speed Wind Dir Waves Ship Positions

Cardinal

Last reported at 2015-May-05 11:05 UTC. Time now 2015-May-05 13:16 UTC.
Position N 46°23' E 031°07'.

Length 191 m; draft 6.2 m.

Type: Cargo ship. MMSI: 538002349.

Date/timePositionNaut miles runAvg speedWind from/ knotsBaromVisibWave heightAir tempDewpointWater temp
2015-May-05 11:05N 46°23' E 031°07'0 0.0
2015-May-05 09:31N 46°23' E 031°07'0 0.0
2015-May-05 06:32N 46°23' E 031°07'12 5.8
2015-May-05 04:27N 46°32' E 030°56'2410.5
2015-May-05 02:09N 46°35' E 031°31'910.9
2015-May-05 01:21N 46°36' E 031°43'910.8
2015-May-05 00:33N 46°38' E 031°55'7 7.4
2015-May-04 23:33N 46°46' E 031°56'0 0.3
2015-May-04 22:31N 46°46' E 031°57'0 0.0
2015-May-04 21:31N 46°46' E 031°57'0 0.0
2015-May-04 20:28N 46°46' E 031°57'0 0.0
2015-May-04 19:33N 46°46' E 031°57'0 0.0
2015-May-04 18:33N 46°46' E 031°57'0 0.0
2015-May-04 17:33N 46°46' E 031°57'0 0.0
2015-May-04 16:33N 46°46' E 031°57'0 0.0
2015-May-04 15:33N 46°46' E 031°57'0 0.0
2015-May-04 14:33N 46°46' E 031°57'0 0.0
2015-May-04 13:33N 46°46' E 031°57'0 0.0
2015-May-04 12:33N 46°46' E 031°57'0 0.0
2015-May-04 11:33N 46°46' E 031°57'0 0.0
2015-May-04 10:33N 46°46' E 031°57'0 0.0
2015-May-04 09:33N 46°46' E 031°57'0 0.0
2015-May-04 08:33N 46°46' E 031°57'0 0.0
2015-May-04 07:33N 46°46' E 031°57'0 0.0
2015-May-04 06:33N 46°46' E 031°57'0 0.0
2015-May-04 05:33N 46°46' E 031°57'0 0.0
2015-May-04 04:33N 46°46' E 031°57'0 0.0
2015-May-04 03:33N 46°46' E 031°57'0 0.0
2015-May-04 02:33N 46°46' E 031°57'0 0.0
2015-May-04 01:33N 46°46' E 031°57'0 0.0
2015-May-04 00:33N 46°46' E 031°57'0 0.0
2015-May-03 23:33N 46°46' E 031°57'0 0.0
2015-May-03 22:33N 46°46' E 031°57'0 0.0
2015-May-03 21:33N 46°46' E 031°57'0 0.0
2015-May-03 20:33N 46°46' E 031°57'0 0.0
2015-May-03 19:33N 46°46' E 031°57'0 0.0
2015-May-03 18:33N 46°46' E 031°57'0 0.0
2015-May-03 17:33N 46°46' E 031°57'0 0.0
2015-May-03 16:33N 46°46' E 031°57'0 0.0
2015-May-03 15:33N 46°46' E 031°57'0 0.0
2015-May-03 14:33N 46°46' E 031°57'0 0.0
2015-May-03 13:33N 46°46' E 031°57'0 0.0
2015-May-03 12:33N 46°46' E 031°57'0 0.0
2015-May-03 11:33N 46°46' E 031°57'0 0.0
2015-May-03 10:33N 46°46' E 031°57'0 0.0
2015-May-03 09:33N 46°46' E 031°57'0 0.0
2015-May-03 08:33N 46°46' E 031°57'0 0.0
2015-May-03 07:33N 46°46' E 031°57'0 0.0
2015-May-03 06:33N 46°46' E 031°57'0 0.0
2015-May-03 05:33N 46°46' E 031°57'0 0.0
2015-May-03 04:33N 46°46' E 031°57'0 0.0
2015-May-03 03:33N 46°46' E 031°57'0 0.0
2015-May-03 02:33N 46°46' E 031°57'0 0.0
2015-May-03 01:33N 46°46' E 031°57'0 0.0
2015-May-03 00:33N 46°46' E 031°57'0 0.0
2015-May-02 23:33N 46°46' E 031°57'0 0.0
2015-May-02 22:33N 46°46' E 031°57'0 0.0
2015-May-02 21:33N 46°46' E 031°57'0 0.0
2015-May-02 20:33N 46°46' E 031°57'0 0.0
2015-May-02 19:33N 46°46' E 031°57'0 0.0
2015-May-02 18:33N 46°46' E 031°57'0 0.1
2015-May-02 17:33N 46°46' E 031°57'3 3.1
2015-May-02 16:33N 46°43' E 031°56'7 7.2
2015-May-02 15:33N 46°37' E 031°51'8 8.3
2015-May-02 14:33N 46°36' E 031°39'8 8.0
2015-May-02 13:31N 46°35' E 031°27'7 6.1
2015-May-02 12:23N 46°35' E 031°17'15 2.4
2015-May-02 06:24N 46°24' E 031°03'0 0.0
2015-May-02 05:34N 46°24' E 031°03'0 0.0
2015-May-02 04:30N 46°24' E 031°03'0 0.0
2015-May-01 19:18N 46°24' E 031°03'0 0.0
2015-May-01 18:34N 46°24' E 031°03'  
2015-Apr-29 00:17N 37°49' E 024°25'7112.4
2015-Apr-28 18:33N 36°41' E 023°57'45012.5
2015-Apr-27 06:32N 36°36' E 014°35'1312.8
2015-Apr-27 05:33N 36°37' E 014°20'1313.1
2015-Apr-27 04:34N 36°39' E 014°04'1313.1
2015-Apr-27 03:33N 36°41' E 013°47'1413.0
2015-Apr-27 02:28N 36°43' E 013°30'1112.6
2015-Apr-27 01:33N 36°45' E 013°16'1312.6
2015-Apr-27 00:33N 36°47' E 013°01'1412.7
2015-Apr-26 23:28N 36°49' E 012°43'1212.6
2015-Apr-26 22:32N 36°51' E 012°29'1212.2
2015-Apr-26 21:34N 36°54' E 012°15'1312.4
2015-Apr-26 20:33N 37°00' E 012°01'1312.5
2015-Apr-26 19:33N 37°06' E 011°47'1312.8
2015-Apr-26 18:32N 37°13' E 011°33'1612.7
2015-Apr-26 17:16N 37°20' E 011°15'2412.3
2015-Apr-26 15:21N 37°29' E 010°47'1012.5
2015-Apr-26 14:33N 37°31' E 010°35'  
Track history (hours):
 
Tides and Currents Weather Stations Pressure Air Temp Water Temp Dewpoint Dewpoint Depression Visibility Wind Speed Wind Dir Waves Ship Positions

Cardinal

Last reported at 2015-May-05 11:05 UTC. Time now 2015-May-05 13:16 UTC.
Position N 46°23' E 031°07'.

Length 191 m; draft 6.2 m.

Type: Cargo ship. MMSI: 538002349.

Date/timePositionNaut miles runAvg speedWind from/ knotsBaromVisibWave heightAir tempDewpointWater temp
2015-May-05 11:05N 46°23' E 031°07'0 0.0
2015-May-05 09:31N 46°23' E 031°07'0 0.0
2015-May-05 06:32N 46°23' E 031°07'12 5.8
2015-May-05 04:27N 46°32' E 030°56'2410.5
2015-May-05 02:09N 46°35' E 031°31'910.9
2015-May-05 01:21N 46°36' E 031°43'910.8
2015-May-05 00:33N 46°38' E 031°55'7 7.4
2015-May-04 23:33N 46°46' E 031°56'0 0.3
2015-May-04 22:31N 46°46' E 031°57'0 0.0
2015-May-04 21:31N 46°46' E 031°57'0 0.0
2015-May-04 20:28N 46°46' E 031°57'0 0.0
2015-May-04 19:33N 46°46' E 031°57'0 0.0
2015-May-04 18:33N 46°46' E 031°57'0 0.0
2015-May-04 17:33N 46°46' E 031°57'0 0.0
2015-May-04 16:33N 46°46' E 031°57'0 0.0
2015-May-04 15:33N 46°46' E 031°57'0 0.0
2015-May-04 14:33N 46°46' E 031°57'0 0.0
2015-May-04 13:33N 46°46' E 031°57'0 0.0
2015-May-04 12:33N 46°46' E 031°57'0 0.0
2015-May-04 11:33N 46°46' E 031°57'0 0.0
2015-May-04 10:33N 46°46' E 031°57'0 0.0
2015-May-04 09:33N 46°46' E 031°57'0 0.0
2015-May-04 08:33N 46°46' E 031°57'0 0.0
2015-May-04 07:33N 46°46' E 031°57'0 0.0
2015-May-04 06:33N 46°46' E 031°57'0 0.0
2015-May-04 05:33N 46°46' E 031°57'0 0.0
2015-May-04 04:33N 46°46' E 031°57'0 0.0
2015-May-04 03:33N 46°46' E 031°57'0 0.0
2015-May-04 02:33N 46°46' E 031°57'0 0.0
2015-May-04 01:33N 46°46' E 031°57'0 0.0
2015-May-04 00:33N 46°46' E 031°57'0 0.0
2015-May-03 23:33N 46°46' E 031°57'0 0.0
2015-May-03 22:33N 46°46' E 031°57'0 0.0
2015-May-03 21:33N 46°46' E 031°57'0 0.0
2015-May-03 20:33N 46°46' E 031°57'0 0.0
2015-May-03 19:33N 46°46' E 031°57'0 0.0
2015-May-03 18:33N 46°46' E 031°57'0 0.0
2015-May-03 17:33N 46°46' E 031°57'0 0.0
2015-May-03 16:33N 46°46' E 031°57'0 0.0
2015-May-03 15:33N 46°46' E 031°57'0 0.0
2015-May-03 14:33N 46°46' E 031°57'0 0.0
2015-May-03 13:33N 46°46' E 031°57'0 0.0
2015-May-03 12:33N 46°46' E 031°57'0 0.0
2015-May-03 11:33N 46°46' E 031°57'0 0.0
2015-May-03 10:33N 46°46' E 031°57'0 0.0
2015-May-03 09:33N 46°46' E 031°57'0 0.0
2015-May-03 08:33N 46°46' E 031°57'0 0.0
2015-May-03 07:33N 46°46' E 031°57'0 0.0
2015-May-03 06:33N 46°46' E 031°57'0 0.0
2015-May-03 05:33N 46°46' E 031°57'0 0.0
2015-May-03 04:33N 46°46' E 031°57'0 0.0
2015-May-03 03:33N 46°46' E 031°57'0 0.0
2015-May-03 02:33N 46°46' E 031°57'0 0.0
2015-May-03 01:33N 46°46' E 031°57'0 0.0
2015-May-03 00:33N 46°46' E 031°57'0 0.0
2015-May-02 23:33N 46°46' E 031°57'0 0.0
2015-May-02 22:33N 46°46' E 031°57'0 0.0
2015-May-02 21:33N 46°46' E 031°57'0 0.0
2015-May-02 20:33N 46°46' E 031°57'0 0.0
2015-May-02 19:33N 46°46' E 031°57'0 0.0
2015-May-02 18:33N 46°46' E 031°57'0 0.1
2015-May-02 17:33N 46°46' E 031°57'3 3.1
2015-May-02 16:33N 46°43' E 031°56'7 7.2
2015-May-02 15:33N 46°37' E 031°51'8 8.3
2015-May-02 14:33N 46°36' E 031°39'8 8.0
2015-May-02 13:31N 46°35' E 031°27'7 6.1
2015-May-02 12:23N 46°35' E 031°17'15 2.4
2015-May-02 06:24N 46°24' E 031°03'0 0.0
2015-May-02 05:34N 46°24' E 031°03'0 0.0
2015-May-02 04:30N 46°24' E 031°03'0 0.0
2015-May-01 19:18N 46°24' E 031°03'0 0.0
2015-May-01 18:34N 46°24' E 031°03'  
2015-Apr-29 00:17N 37°49' E 024°25'7112.4
2015-Apr-28 18:33N 36°41' E 023°57'45012.5
2015-Apr-27 06:32N 36°36' E 014°35'1312.8
2015-Apr-27 05:33N 36°37' E 014°20'1313.1
2015-Apr-27 04:34N 36°39' E 014°04'1313.1
2015-Apr-27 03:33N 36°41' E 013°47'1413.0
2015-Apr-27 02:28N 36°43' E 013°30'1112.6
2015-Apr-27 01:33N 36°45' E 013°16'1312.6
2015-Apr-27 00:33N 36°47' E 013°01'1412.7
2015-Apr-26 23:28N 36°49' E 012°43'1212.6
2015-Apr-26 22:32N 36°51' E 012°29'1212.2
2015-Apr-26 21:34N 36°54' E 012°15'1312.4
2015-Apr-26 20:33N 37°00' E 012°01'1312.5
2015-Apr-26 19:33N 37°06' E 011°47'1312.8
2015-Apr-26 18:32N 37°13' E 011°33'1612.7
2015-Apr-26 17:16N 37°20' E 011°15'2412.3
2015-Apr-26 15:21N 37°29' E 010°47'1012.5
2015-Apr-26 14:33N 37°31' E 010°35'  

Dump ship's entire track history